KRKP

Details ICAO KRKP (RKP)
Name ARANSAS CO
Region United States
Timezone America/Chicago (UTC-6.0)
Plans Departing 8
Arriving 5
Stats Elevation 23 ft / 7 m (AMSL)
Location 28.086820° -97.044462°
Runways 3
Magnetic Variation 3.481° E
Sunrise 2017-12-16 13:14:20 UTC / 2017-12-16 07:14:20 Local
Sunset 2017-12-16 23:36:18 UTC / 2017-12-16 17:36:18 Local
Advertisement - Login to hide

Runways

ID Width Length Bearing (true) Bearing (mag) Surface Threshold Offset Overrun Length
09 150 ft / 46 m 4,344 ft / 1,324 m 100.51° 97.03° Asphalt 0 ft / 0 m 0 ft / 0 m
14 100 ft / 30 m 5,620 ft / 1,713 m 145.59° 142.11° Asphalt 0 ft / 0 m 0 ft / 0 m
18 100 ft / 30 m 4,514 ft / 1,376 m 190.42° 186.94° Asphalt 0 ft / 0 m 0 ft / 0 m
27 150 ft / 46 m 4,344 ft / 1,324 m 280.52° 277.04° Asphalt 0 ft / 0 m 0 ft / 0 m
32 100 ft / 30 m 5,620 ft / 1,713 m 325.59° 322.11° Asphalt 561 ft / 171 m 0 ft / 0 m
36 100 ft / 30 m 4,514 ft / 1,376 m 10.42° 6.94° Asphalt 0 ft / 0 m 0 ft / 0 m

Map

Weather


0- 5 10 15 20 25 30 35+ Temperature / ° C

Clouds and Precipitation
Forecast for 2017-12-17 00:00 UTC. Updated an hour ago

Ground ~20,000 ft ~40,000 ft Winds

METAR

KRKP 162015Z AUTO 04007KT 4SM -RA OVC014 14/12 A3000 RMK AO2 RAB15 P0000 T01440117

TAF

Not found

Frequencies

Recorded 119.27 MHz ASOS
Clearance 121.70 MHz CLNC DEL
Unicom 123.05 MHz CTAF/UNICOM
Approach 120.90 MHz CORPUS APP/DEP
Warning: Do not use this data for real-world aviation or navigation. No guarantee of current accuracy is given.